| Time | Avg. Air Temp | Dew Point | Avg. Rel Humidity | Avg. 2 Min Wind Speed | Max Gust Velocity | MGV Time | MGV Direction | Avg. Spot Wind Velocity |
|---|---|---|---|---|---|---|---|---|
| 2026-09-03 05:15:00 | 3° C | 3° C | 100% | 9 km/h | 13 km/h | 05:11:00 | SE | 10 km/h |
| 04:15:00 | 4° C | 2° C | 88% | 17 km/h | 20 km/h | 04:12:00 | SE | 18 km/h |
| 03:15:00 | 4° C | 3° C | 93% | 10 km/h | 15 km/h | 03:14:00 | E | 12 km/h |
| 02:15:00 | 4° C | 2° C | 89% | 14 km/h | 19 km/h | 02:11:00 | SE | 14 km/h |
| 01:15:00 | 4° C | 3° C | 98% | 18 km/h | 22 km/h | 01:13:00 | SE | 19 km/h |
| 00:15:00 | 4° C | 3° C | 97% | 2 km/h | 10 km/h | 00:11:00 | SE | 5 km/h |
| 23:15:00 | 4° C | 4° C | 100% | 24 km/h | 31 km/h | 23:13:00 | S | 25 km/h |
| 22:15:00 | 4° C | 4° C | 100% | 29 km/h | 45 km/h | 22:12:00 | SE | 33 km/h |
| 21:15:00 | 4° C | 4° C | 100% | 25 km/h | 44 km/h | 21:12:00 | SE | 30 km/h |
| 20:15:00 | 5° C | 5° C | 100% | 29 km/h | 41 km/h | 20:11:00 | SE | 27 km/h |
| 19:15:00 | 5° C | 5° C | 99% | 29 km/h | 34 km/h | 19:14:00 | SE | 26 km/h |
| 18:15:00 | 6° C | 5° C | 91% | 8 km/h | 23 km/h | 18:11:00 | E | 11 km/h |
| 17:15:00 | 6° C | 4° C | 89% | 12 km/h | 19 km/h | 17:12:00 | SE | 14 km/h |
| 16:15:00 | 6° C | 5° C | 99% | 2 km/h | 7 km/h | 16:11:00 | SE | 2 km/h |
| 15:15:00 | 8° C | 6° C | 80% | 6 km/h | 12 km/h | 15:12:00 | S | 6 km/h |
| 14:15:00 | 7° C | 3° C | 75% | 9 km/h | 13 km/h | 14:15:00 | S | 6 km/h |
| 13:15:00 | 7° C | 2° C | 68% | 27 km/h | 46 km/h | 13:11:00 | SE | 30 km/h |
| 12:15:00 | 7° C | 3° C | 75% | 15 km/h | 32 km/h | 12:11:00 | E | 17 km/h |
| 11:15:00 | 7° C | 6° C | 86% | 13 km/h | 21 km/h | 11:12:00 | SE | 16 km/h |
| 10:15:00 | 9° C | 5° C | 76% | 11 km/h | 21 km/h | 10:11:00 | SE | 13 km/h |
| 09:15:00 | 8° C | 5° C | 79% | 13 km/h | 22 km/h | 09:15:00 | SE | 15 km/h |
| 08:15:00 | 8° C | 4° C | 80% | 18 km/h | 26 km/h | 08:11:00 | SE | 18 km/h |
| 07:15:00 | 7° C | 4° C | 80% | 18 km/h | 27 km/h | 07:13:00 | SE | 20 km/h |
| 06:15:00 | 7° C | 4° C | 82% | 22 km/h | 32 km/h | 06:12:00 | SE | 22 km/h |
Subpeak Weather
| Time | Avg. Air Temp | Dew Point | Avg. Rel Humidity | Avg. 2 Min Wind Speed | Max Gust Velocity | MGV Time | MGV Direction | Avg. Spot Wind Velocity |
|---|---|---|---|---|---|---|---|---|
| 2026-09-03 05:15:00 | 3° C | 3° C | 100% | 9 km/h | 13 km/h | 05:11:00 | SE | 10 km/h |
| 05:10:00 | 3° C | 3° C | 99% | 11 km/h | 12 km/h | 05:10:00 | S | 8 km/h |
| 05:05:00 | 3° C | 3° C | 96% | 6 km/h | 10 km/h | 05:01:00 | E | 6 km/h |
| 05:00:00 | 4° C | 3° C | 93% | 12 km/h | 19 km/h | 04:56:00 | SE | 14 km/h |
| 04:55:00 | 4° C | 2° C | 92% | 14 km/h | 22 km/h | 04:52:00 | SE | 16 km/h |
| 04:50:00 | 4° C | 2° C | 91% | 19 km/h | 24 km/h | 04:49:00 | SE | 16 km/h |
| 04:45:00 | 4° C | 2° C | 89% | 16 km/h | 26 km/h | 04:42:00 | SE | 17 km/h |
| 04:40:00 | 4° C | 2° C | 87% | 21 km/h | 26 km/h | 04:38:00 | SE | 23 km/h |
| 04:35:00 | 4° C | 2° C | 88% | 22 km/h | 28 km/h | 04:35:00 | SE | 21 km/h |
| 04:30:00 | 4° C | 2° C | 90% | 14 km/h | 24 km/h | 04:27:00 | SE | 15 km/h |
| 04:25:00 | 4° C | 2° C | 88% | 20 km/h | 22 km/h | 04:25:00 | SE | 18 km/h |
| 04:20:00 | 4° C | 2° C | 87% | 17 km/h | 19 km/h | 04:16:00 | SE | 18 km/h |
| 04:15:00 | 4° C | 2° C | 88% | 17 km/h | 20 km/h | 04:12:00 | SE | 18 km/h |




